Time;durP1;ratioP1;P1;durP2;ratioP2;P2;SDS_P1;SDS_P2;PMS_P1;PMS_P2;Temp;Humidity;BMP_temperature;BMP_pressure;BME280_temperature;BME280_humidity;BME280_pressure;Samples;Min_cycle;Max_cycle;Signal;HPM_P1;HPM_P2
2021/03/02 00:01:35;;;;;;;21.03;11.70;;;2.70;50.00;;;;;;4986128;28;37654;-78
2021/03/02 00:04:05;;;;;;;15.53;10.10;;;2.70;50.10;;;;;;4992318;28;38611;-79
2021/03/02 00:06:32;;;;;;;16.53;11.10;;;2.70;50.20;;;;;;4994271;28;37045;-79
2021/03/02 00:09:00;;;;;;;19.37;11.37;;;2.70;50.10;;;;;;4993067;28;39134;-78
2021/03/02 00:11:30;;;;;;;20.57;11.37;;;2.70;50.10;;;;;;5001264;28;39158;-78
2021/03/02 00:13:58;;;;;;;18.07;11.17;;;2.60;50.30;;;;;;4992012;28;37164;-79
2021/03/02 00:16:27;;;;;;;17.23;10.00;;;2.50;50.50;;;;;;4984296;28;36164;-78
2021/03/02 00:18:57;;;;;;;13.33;8.60;;;2.50;50.70;;;;;;4987933;28;38108;-79
2021/03/02 00:21:29;;;;;;;13.60;9.33;;;2.40;50.70;;;;;;4988490;28;38681;-78
2021/03/02 00:24:02;;;;;;;17.43;10.73;;;2.40;50.70;;;;;;5009627;28;39463;-79
2021/03/02 00:26:35;;;;;;;15.00;9.40;;;2.40;51.00;;;;;;5003206;28;37178;-79
2021/03/02 00:29:05;;;;;;;16.80;9.47;;;2.30;51.20;;;;;;5010728;28;38341;-79
2021/03/02 00:31:34;;;;;;;15.80;9.50;;;2.30;51.10;;;;;;5006789;28;39122;-79
2021/03/02 00:34:01;;;;;;;21.23;10.67;;;2.30;51.30;;;;;;4994964;28;36832;-79
2021/03/02 00:36:30;;;;;;;12.43;9.23;;;2.20;51.40;;;;;;5013574;28;37395;-80
2021/03/02 00:38:57;;;;;;;15.93;10.10;;;2.30;51.40;;;;;;5011792;28;39683;-79
2021/03/02 00:41:24;;;;;;;16.53;10.63;;;2.20;51.30;;;;;;4989097;28;39462;-78
2021/03/02 00:43:53;;;;;;;19.17;11.87;;;2.30;51.50;;;;;;5019279;28;38322;-81
2021/03/02 00:46:20;;;;;;;16.00;10.77;;;2.20;51.30;;;;;;4996484;28;35829;-80
2021/03/02 00:48:47;;;;;;;17.27;10.53;;;2.20;51.50;;;;;;4998497;28;38736;-80
2021/03/02 00:51:14;;;;;;;17.77;11.27;;;2.20;51.40;;;;;;5013545;28;39107;-80
2021/03/02 00:53:41;;;;;;;14.80;9.93;;;2.10;51.30;;;;;;5013078;28;38004;-79
2021/03/02 00:56:09;;;;;;;15.83;8.70;;;2.10;51.50;;;;;;5000829;28;36121;-79
2021/03/02 00:58:37;;;;;;;19.40;10.33;;;2.10;51.40;;;;;;4997443;28;38272;-79
2021/03/02 01:01:05;;;;;;;15.50;8.27;;;2.10;51.30;;;;;;4995672;28;37580;-80
2021/03/02 01:03:32;;;;;;;13.57;8.90;;;2.10;51.30;;;;;;5002463;28;37402;-80
2021/03/02 01:05:59;;;;;;;19.30;10.40;;;2.00;51.30;;;;;;5017636;28;37872;-80
2021/03/02 01:08:28;;;;;;;16.40;10.20;;;2.00;51.70;;;;;;5008605;28;39408;-80
2021/03/02 01:11:03;;;;;;;16.93;11.73;;;2.00;51.90;;;;;;4988134;28;38401;-80
2021/03/02 01:13:33;;;;;;;17.93;10.53;;;1.90;51.80;;;;;;5002246;28;37397;-80
2021/03/02 01:16:00;;;;;;;12.60;8.97;;;1.90;51.80;;;;;;5012862;28;38054;-80
2021/03/02 01:18:28;;;;;;;19.87;10.50;;;1.80;51.70;;;;;;4994661;28;39903;-80
2021/03/02 01:20:55;;;;;;;15.53;9.07;;;1.80;51.70;;;;;;5005480;28;38906;-80
2021/03/02 01:23:24;;;;;;;13.03;9.47;;;1.80;52.40;;;;;;4988768;28;37088;-80
2021/03/02 01:25:53;;;;;;;12.30;8.00;;;1.80;51.80;;;;;;5018505;28;37785;-81
2021/03/02 01:28:24;;;;;;;14.07;8.60;;;1.80;51.70;;;;;;4998740;28;38738;-81
2021/03/02 01:31:00;;;;;;;15.00;9.10;;;1.80;51.70;;;;;;4997584;28;38036;-81
2021/03/02 01:33:28;;;;;;;19.57;11.13;;;1.80;51.70;;;;;;5008159;28;38921;-81
2021/03/02 01:35:55;;;;;;;15.83;10.73;;;1.80;51.70;;;;;;5016106;28;36782;-81
2021/03/02 01:38:22;;;;;;;16.03;11.17;;;1.80;51.70;;;;;;5013857;28;39634;-81
2021/03/02 01:40:49;;;;;;;18.43;11.33;;;1.80;51.70;;;;;;5019988;28;39727;-81
2021/03/02 01:43:16;;;;;;;16.73;9.77;;;1.70;51.60;;;;;;5016446;28;38443;-82
2021/03/02 01:45:43;;;;;;;15.20;9.37;;;1.70;51.60;;;;;;5019592;28;37352;-81
2021/03/02 01:48:11;;;;;;;19.50;11.50;;;1.70;51.70;;;;;;4997870;28;38437;-81
2021/03/02 01:50:39;;;;;;;17.63;10.10;;;1.70;51.60;;;;;;5014899;28;38572;-81
2021/03/02 01:53:06;;;;;;;15.17;10.50;;;1.70;51.60;;;;;;5015675;28;39554;-81
2021/03/02 01:55:33;;;;;;;15.30;10.10;;;1.60;51.70;;;;;;5012810;28;37126;-81
2021/03/02 01:58:00;;;;;;;14.70;10.60;;;1.60;51.90;;;;;;5014187;28;39265;-81
2021/03/02 02:00:30;;;;;;;17.53;9.90;;;1.60;51.90;;;;;;5012718;28;39204;-81
2021/03/02 02:03:13;;;;;;;16.30;8.90;;;1.60;51.70;;;;;;4998019;28;37253;-80
2021/03/02 02:05:47;;;;;;;13.70;10.20;;;1.60;51.50;;;;;;5014116;28;36807;-80
2021/03/02 02:08:23;;;;;;;15.80;9.80;;;1.60;51.50;;;;;;4991427;28;38751;-81
2021/03/02 02:10:57;;;;;;;13.23;9.40;;;1.50;51.70;;;;;;4994989;28;38770;-80
2021/03/02 02:13:31;;;;;;;16.00;8.97;;;1.50;51.70;;;;;;5013475;28;38427;-80
2021/03/02 02:16:01;;;;;;;12.70;7.77;;;1.50;51.90;;;;;;5008710;28;37166;-80
2021/03/02 02:18:33;;;;;;;13.47;8.40;;;1.50;51.80;;;;;;5014141;28;40727;-81
2021/03/02 02:21:15;;;;;;;14.93;9.63;;;1.40;51.70;;;;;;4995918;28;38612;-81
2021/03/02 02:23:48;;;;;;;16.20;9.80;;;1.40;52.10;;;;;;5010791;28;38109;-80
2021/03/02 02:26:22;;;;;;;14.63;9.17;;;1.40;52.10;;;;;;5012349;28;37204;-81
2021/03/02 02:28:50;;;;;;;15.50;9.33;;;1.30;52.40;;;;;;5012025;28;39595;-81
2021/03/02 02:31:20;;;;;;;16.30;10.23;;;1.30;52.50;;;;;;5012852;28;39136;-80
2021/03/02 02:33:50;;;;;;;15.40;10.53;;;1.30;52.60;;;;;;5002829;28;38736;-80
2021/03/02 02:36:18;;;;;;;12.03;8.17;;;1.30;52.70;;;;;;5012237;28;37341;-80
2021/03/02 02:38:50;;;;;;;12.97;7.93;;;1.20;52.70;;;;;;5011368;28;39627;-80
2021/03/02 02:41:18;;;;;;;13.03;8.07;;;1.20;52.60;;;;;;5008275;28;39778;-80
2021/03/02 02:43:46;;;;;;;12.43;8.03;;;1.20;52.60;;;;;;5014811;28;39060;-80
2021/03/02 02:46:15;;;;;;;13.10;7.40;;;1.30;52.70;;;;;;5014627;28;38018;-80
2021/03/02 02:48:44;;;;;;;11.80;8.00;;;1.30;52.60;;;;;;4994381;28;38300;-81
2021/03/02 02:51:12;;;;;;;10.77;7.23;;;1.30;52.40;;;;;;5012178;28;40011;-80
2021/03/02 02:53:43;;;;;;;11.80;7.73;;;1.20;52.40;;;;;;5013280;28;37905;-80
2021/03/02 02:56:12;;;;;;;13.20;8.03;;;1.20;52.60;;;;;;4992610;28;36924;-80
2021/03/02 02:58:42;;;;;;;11.20;7.00;;;1.20;52.60;;;;;;5012253;28;39872;-80
2021/03/02 03:01:12;;;;;;;10.47;6.93;;;1.10;52.70;;;;;;5011760;28;38785;-80
2021/03/02 03:03:46;;;;;;;12.53;7.40;;;1.10;52.80;;;;;;4996971;28;37021;-80
2021/03/02 03:06:17;;;;;;;12.70;7.43;;;1.10;52.90;;;;;;5013480;28;36696;-80
2021/03/02 03:08:49;;;;;;;12.50;7.40;;;1.10;52.60;;;;;;4995593;28;38861;-79
2021/03/02 03:11:19;;;;;;;10.20;6.57;;;1.10;52.80;;;;;;5010862;28;39036;-80
2021/03/02 03:13:48;;;;;;;13.97;8.30;;;1.00;52.80;;;;;;5014079;28;38079;-79
2021/03/02 03:16:17;;;;;;;13.23;6.80;;;1.00;52.90;;;;;;5005390;28;38391;-80
2021/03/02 03:18:49;;;;;;;10.10;7.43;;;1.00;53.00;;;;;;5005185;28;40366;-80
2021/03/02 03:21:17;;;;;;;12.97;8.30;;;0.90;53.20;;;;;;4991492;28;38996;-80
2021/03/02 03:23:44;;;;;;;12.30;7.80;;;0.80;53.40;;;;;;5012768;28;38205;-80
2021/03/02 03:26:15;;;;;;;13.10;8.27;;;0.80;53.40;;;;;;5012828;28;38012;-80
2021/03/02 03:28:45;;;;;;;13.70;8.50;;;0.70;53.50;;;;;;5014134;28;39938;-80
2021/03/02 03:31:17;;;;;;;10.63;8.17;;;0.70;53.60;;;;;;4981836;28;37936;-80
2021/03/02 03:33:46;;;;;;;12.47;7.70;;;0.70;53.80;;;;;;5008764;28;38546;-79
2021/03/02 03:36:14;;;;;;;13.03;8.43;;;0.70;53.80;;;;;;5010627;28;37716;-80
2021/03/02 03:38:41;;;;;;;13.57;8.60;;;0.70;54.10;;;;;;5008082;28;39388;-80
2021/03/02 03:41:08;;;;;;;16.53;9.10;;;0.70;54.20;;;;;;5011607;28;39701;-79
2021/03/02 03:43:35;;;;;;;12.13;8.37;;;0.70;54.30;;;;;;4996205;28;37089;-79
2021/03/02 03:46:02;;;;;;;11.27;7.70;;;0.60;54.50;;;;;;4992360;28;36629;-80
2021/03/02 03:48:29;;;;;;;14.67;9.00;;;0.60;54.60;;;;;;5013289;28;39373;-81
2021/03/02 03:50:58;;;;;;;12.53;8.80;;;0.60;54.60;;;;;;5013218;28;39150;-80
2021/03/02 03:53:27;;;;;;;13.43;10.27;;;0.60;54.90;;;;;;5009311;28;37743;-81
2021/03/02 03:55:55;;;;;;;16.23;10.10;;;0.50;55.00;;;;;;5010463;28;37218;-81
2021/03/02 03:58:23;;;;;;;12.70;9.27;;;0.60;55.10;;;;;;5008608;28;41763;-81
2021/03/02 04:00:52;;;;;;;14.77;9.97;;;0.60;55.10;;;;;;5011090;28;38848;-80
2021/03/02 04:03:20;;;;;;;18.13;10.27;;;0.60;55.30;;;;;;5011775;28;38644;-80
2021/03/02 04:05:48;;;;;;;17.50;10.40;;;0.50;55.40;;;;;;4995818;28;37195;-81
2021/03/02 04:08:17;;;;;;;13.93;9.80;;;0.50;55.30;;;;;;5011937;28;40184;-81
2021/03/02 04:10:44;;;;;;;15.60;9.80;;;0.40;55.40;;;;;;5014044;28;39292;-79
2021/03/02 04:13:13;;;;;;;13.67;9.93;;;0.40;55.30;;;;;;5012101;28;39218;-80
2021/03/02 04:15:41;;;;;;;15.00;9.20;;;0.40;55.40;;;;;;5012547;28;36952;-81
2021/03/02 04:18:13;;;;;;;15.80;9.70;;;0.30;55.40;;;;;;5012875;28;39611;-79
2021/03/02 04:20:42;;;;;;;13.70;8.80;;;0.40;55.50;;;;;;4998907;28;37555;-80
2021/03/02 04:23:10;;;;;;;17.10;10.60;;;0.40;55.20;;;;;;5006894;28;38769;-80
2021/03/02 04:25:38;;;;;;;13.47;9.50;;;0.40;55.20;;;;;;4976274;28;37966;-80
2021/03/02 04:28:09;;;;;;;16.27;9.70;;;0.40;55.30;;;;;;4975733;28;20561;-80
2021/03/02 04:30:36;;;;;;;14.83;11.07;;;0.40;55.20;;;;;;4976760;28;39151;-81
2021/03/02 04:33:04;;;;;;;16.00;10.60;;;0.40;55.30;;;;;;4982768;28;39291;-79
2021/03/02 04:35:31;;;;;;;17.57;11.53;;;0.30;55.30;;;;;;4993619;28;38274;-81
2021/03/02 04:38:01;;;;;;;16.10;10.27;;;0.30;55.20;;;;;;4992110;28;39746;-82
2021/03/02 04:40:28;;;;;;;17.77;10.30;;;0.30;55.40;;;;;;4976986;28;39765;-80
2021/03/02 04:42:56;;;;;;;14.87;10.43;;;0.20;55.30;;;;;;4981184;28;38250;-80
2021/03/02 04:45:26;;;;;;;19.73;11.73;;;0.30;56.10;;;;;;4980762;28;38000;-79
2021/03/02 04:47:53;;;;;;;15.93;9.90;;;0.20;55.30;;;;;;4977377;28;40239;-80
2021/03/02 04:50:20;;;;;;;17.17;10.60;;;0.30;55.50;;;;;;4964549;28;40339;-80
2021/03/02 04:52:47;;;;;;;15.83;9.73;;;0.20;55.40;;;;;;4975578;28;39394;-79
2021/03/02 04:55:14;;;;;;;17.13;11.00;;;0.10;55.50;;;;;;4983305;28;36514;-79
2021/03/02 04:57:41;;;;;;;17.90;10.57;;;0.10;55.60;;;;;;4983447;28;38203;-80
2021/03/02 05:00:10;;;;;;;15.60;9.53;;;0.10;55.60;;;;;;4976042;28;38856;-80
2021/03/02 05:02:38;;;;;;;15.50;10.40;;;0.10;55.50;;;;;;4977742;28;38711;-80
2021/03/02 05:05:06;;;;;;;13.93;9.63;;;0.10;55.60;;;;;;4978156;28;38150;-80
2021/03/02 05:07:33;;;;;;;20.07;10.33;;;0.20;55.50;;;;;;4977881;28;38942;-79
2021/03/02 05:10:03;;;;;;;16.30;9.30;;;0.20;55.40;;;;;;4978638;28;38954;-80
2021/03/02 05:12:30;;;;;;;14.63;8.87;;;0.20;55.40;;;;;;4981360;28;38469;-81
2021/03/02 05:14:59;;;;;;;11.67;8.53;;;0.10;55.40;;;;;;4985441;28;37435;-80
2021/03/02 05:17:30;;;;;;;14.03;8.20;;;0.10;55.40;;;;;;4982783;28;38494;-80
2021/03/02 05:19:57;;;;;;;13.47;8.73;;;0.10;55.40;;;;;;4983144;28;37807;-80
2021/03/02 05:22:25;;;;;;;11.53;7.70;;;0.00;55.50;;;;;;4972528;28;39231;-81
2021/03/02 05:24:52;;;;;;;18.67;8.67;;;0.00;55.50;;;;;;5008925;28;37901;-81
2021/03/02 05:27:19;;;;;;;14.70;8.53;;;0.00;55.50;;;;;;5012996;28;39923;-81
2021/03/02 05:29:46;;;;;;;12.87;7.43;;;0.00;55.60;;;;;;5011227;28;39392;-81
2021/03/02 05:32:13;;;;;;;17.60;8.33;;;0.00;55.90;;;;;;5014101;28;38303;-81
2021/03/02 05:34:43;;;;;;;15.93;8.03;;;0.00;55.90;;;;;;5014020;28;37170;-80
2021/03/02 05:37:10;;;;;;;14.30;8.00;;;0.00;55.80;;;;;;4997481;28;38601;-80
2021/03/02 05:39:37;;;;;;;16.43;8.40;;;-0.10;55.80;;;;;;5013688;28;39239;-79
2021/03/02 05:42:06;;;;;;;12.93;8.00;;;-0.10;56.00;;;;;;5013337;28;38589;-79
2021/03/02 05:44:34;;;;;;;17.43;9.07;;;-0.10;56.10;;;;;;5012996;28;37743;-79
2021/03/02 05:47:01;;;;;;;11.60;8.53;;;-0.10;56.00;;;;;;5015415;28;39637;-81
2021/03/02 05:49:31;;;;;;;13.70;9.17;;;-0.10;56.30;;;;;;5014147;28;39265;-81
2021/03/02 05:51:59;;;;;;;13.20;8.40;;;-0.10;56.50;;;;;;5013921;28;39182;-80
2021/03/02 05:54:28;;;;;;;12.77;9.27;;;-0.10;56.50;;;;;;4994280;28;36216;-81
2021/03/02 05:56:55;;;;;;;14.60;9.43;;;-0.10;56.50;;;;;;4995275;28;38759;-81
2021/03/02 05:59:25;;;;;;;13.23;8.63;;;-0.20;56.40;;;;;;5013442;28;40094;-81
2021/03/02 06:01:54;;;;;;;16.53;10.50;;;-0.10;56.60;;;;;;5012209;28;38260;-81
2021/03/02 06:04:22;;;;;;;16.87;11.70;;;-0.10;56.70;;;;;;5014108;28;36227;-82
2021/03/02 06:06:49;;;;;;;17.50;11.20;;;-0.10;56.70;;;;;;5012299;28;39424;-80
2021/03/02 06:09:20;;;;;;;17.83;10.80;;;-0.10;56.70;;;;;;5011922;28;38161;-80
2021/03/02 06:11:47;;;;;;;19.13;10.50;;;-0.10;56.70;;;;;;5005855;28;39414;-80
2021/03/02 06:14:21;;;;;;;16.83;11.07;;;-0.10;56.80;;;;;;5013615;28;37444;-81
2021/03/02 06:16:49;;;;;;;16.20;10.60;;;-0.10;56.90;;;;;;4996715;28;38083;-80
2021/03/02 06:19:17;;;;;;;22.30;11.63;;;-0.10;57.00;;;;;;5013550;28;38941;-81
2021/03/02 06:21:45;;;;;;;15.50;10.47;;;0.00;57.10;;;;;;5012741;28;38255;-80
2021/03/02 06:24:12;;;;;;;16.97;11.53;;;0.00;57.10;;;;;;4987962;28;35996;-80
2021/03/02 06:26:42;;;;;;;18.20;10.70;;;0.10;57.50;;;;;;5019101;28;39437;-81
2021/03/02 06:29:13;;;;;;;18.43;10.40;;;0.30;58.00;;;;;;5022108;28;39442;-81
2021/03/02 06:31:41;;;;;;;19.03;10.07;;;0.50;58.80;;;;;;5008492;28;38403;-80
2021/03/02 06:34:12;;;;;;;15.60;9.83;;;0.90;58.80;;;;;;5013521;28;37948;-81
2021/03/02 06:36:41;;;;;;;13.63;7.97;;;1.60;59.60;;;;;;4986357;28;39478;-81
2021/03/02 06:39:26;;;;;;;12.20;6.50;;;2.70;59.70;;;;;;5013158;28;37523;-81
2021/03/02 06:42:13;;;;;;;11.00;6.70;;;4.40;57.60;;;;;;4987707;28;38885;-81
2021/03/02 06:44:41;;;;;;;11.93;6.57;;;6.40;50.80;;;;;;5012824;28;37357;-82
2021/03/02 06:47:09;;;;;;;9.97;6.63;;;8.00;44.00;;;;;;5013524;28;40411;-82
2021/03/02 06:49:39;;;;;;;10.33;6.73;;;9.20;39.40;;;;;;5012600;28;39036;-82
2021/03/02 06:52:18;;;;;;;10.43;6.93;;;10.50;36.20;;;;;;4987939;28;38173;-83
2021/03/02 06:54:46;;;;;;;10.43;7.10;;;11.50;32.00;;;;;;5007940;28;37114;-82
2021/03/02 06:57:20;;;;;;;12.67;7.07;;;12.50;30.50;;;;;;4993072;28;39114;-84
2021/03/02 06:59:54;;;;;;;10.43;7.53;;;13.30;29.70;;;;;;5000627;28;39828;-83
2021/03/02 07:02:37;;;;;;;10.77;7.50;;;14.30;28.00;;;;;;5011693;28;38293;-83
2021/03/02 07:05:09;;;;;;;10.93;7.60;;;15.20;27.40;;;;;;5015995;28;37191;-83
2021/03/02 07:07:38;;;;;;;13.60;8.50;;;15.70;25.80;;;;;;4999120;28;39728;-84
2021/03/02 07:10:07;;;;;;;13.13;7.37;;;16.20;25.70;;;;;;5016337;28;40045;-83
2021/03/02 07:12:38;;;;;;;10.00;8.47;;;17.00;24.90;;;;;;5013388;28;38127;-83
2021/03/02 07:15:07;;;;;;;11.27;7.80;;;17.90;24.10;;;;;;5014358;28;35889;-83
2021/03/02 07:17:37;;;;;;;9.90;7.60;;;18.40;23.40;;;;;;5018594;28;39611;-84
2021/03/02 07:20:06;;;;;;;9.37;7.60;;;18.90;22.90;;;;;;5008497;28;38914;-84
2021/03/02 07:22:34;;;;;;;12.70;8.40;;;19.10;22.30;;;;;;5017599;28;39304;-83
2021/03/02 07:25:07;;;;;;;13.63;8.33;;;19.20;22.00;;;;;;4991667;28;36081;-84
2021/03/02 07:27:40;;;;;;;12.33;8.03;;;19.30;21.90;;;;;;5019755;28;39439;-84
2021/03/02 07:30:12;;;;;;;12.00;8.30;;;18.60;21.80;;;;;;5012559;28;38738;-83
2021/03/02 07:32:40;;;;;;;18.90;8.50;;;16.80;23.00;;;;;;5022606;28;38295;-83
2021/03/02 07:35:09;;;;;;;19.40;8.53;;;16.30;24.20;;;;;;5017060;28;36993;-84
2021/03/02 07:37:37;;;;;;;23.10;9.30;;;16.40;24.50;;;;;;5020054;28;39210;-84
2021/03/02 07:40:06;;;;;;;12.77;8.70;;;17.40;23.40;;;;;;5014517;28;39137;-83
2021/03/02 07:42:37;;;;;;;16.97;10.87;;;18.50;22.90;;;;;;5014498;28;38715;-84
2021/03/02 07:45:12;;;;;;;18.93;10.10;;;19.50;21.70;;;;;;5001822;28;35965;-84
2021/03/02 07:47:46;;;;;;;21.07;10.63;;;20.30;21.40;;;;;;5018334;28;40319;-83
2021/03/02 07:50:19;;;;;;;20.97;10.67;;;20.60;20.60;;;;;;5002415;28;38863;-82
2021/03/02 07:52:46;;;;;;;24.60;11.90;;;20.40;20.50;;;;;;5014174;28;38185;-83
2021/03/02 07:55:19;;;;;;;15.20;11.10;;;19.40;20.90;;;;;;5015264;28;37336;-83
2021/03/02 07:57:48;;;;;;;15.20;10.63;;;18.20;21.70;;;;;;5014793;28;39445;-83
2021/03/02 08:00:23;;;;;;;21.23;11.40;;;16.90;22.70;;;;;;5016153;28;39347;-83
2021/03/02 08:03:18;;;;;;;17.50;10.97;;;15.60;24.30;;;;;;5002278;28;36978;-83
2021/03/02 08:05:46;;;;;;;13.60;9.90;;;15.50;25.60;;;;;;4996355;28;36790;-83
2021/03/02 08:08:32;;;;;;;14.90;9.40;;;16.90;24.80;;;;;;5013766;28;40389;-84
2021/03/02 08:11:01;;;;;;;13.90;9.20;;;18.90;22.90;;;;;;5010726;28;37919;-85
2021/03/02 08:13:37;;;;;;;19.23;9.93;;;20.70;22.10;;;;;;5016162;28;37424;-84
2021/03/02 08:16:09;;;;;;;24.23;10.30;;;22.30;20.10;;;;;;5004523;28;36444;-83
2021/03/02 08:18:39;;;;;;;13.93;9.20;;;23.60;19.80;;;;;;5029037;28;40680;-82
2021/03/02 08:21:14;;;;;;;13.13;10.77;;;24.70;19.50;;;;;;5022690;28;39344;-83
2021/03/02 08:24:00;;;;;;;10.90;9.77;;;25.50;18.10;;;;;;5013890;28;38343;-83
2021/03/02 08:26:32;;;;;;;10.33;9.23;;;26.00;18.00;;;;;;5011167;28;38230;-83
2021/03/02 08:29:15;;;;;;;17.10;9.80;;;26.10;17.20;;;;;;5012939;28;39499;-84
2021/03/02 08:31:44;;;;;;;13.90;9.87;;;26.40;16.90;;;;;;5015207;28;38385;-83
2021/03/02 08:34:14;;;;;;;11.07;9.90;;;26.70;17.00;;;;;;4996414;28;38564;-84
2021/03/02 08:36:41;;;;;;;11.97;9.90;;;26.90;16.40;;;;;;5013328;28;37317;-84
2021/03/02 08:39:13;;;;;;;12.57;10.13;;;27.00;16.50;;;;;;5012887;28;39506;-83
2021/03/02 08:41:42;;;;;;;26.63;11.13;;;27.10;16.20;;;;;;4996083;28;37765;-84
2021/03/02 08:44:19;;;;;;;16.10;9.60;;;26.90;16.60;;;;;;5016338;28;39098;-84
2021/03/02 08:46:49;;;;;;;17.00;10.00;;;27.20;16.30;;;;;;5002031;28;37915;-84
2021/03/02 08:49:16;;;;;;;20.30;11.30;;;27.80;16.00;;;;;;5015901;28;39987;-84
2021/03/02 08:51:44;;;;;;;14.43;9.97;;;28.10;15.80;;;;;;4996957;28;38695;-83
2021/03/02 08:54:11;;;;;;;16.80;9.67;;;28.40;15.30;;;;;;5013338;28;38442;-83
2021/03/02 08:56:38;;;;;;;10.10;9.13;;;28.50;15.70;;;;;;5013434;28;38447;-84
2021/03/02 08:59:08;;;;;;;12.03;10.10;;;28.70;15.20;;;;;;5017327;28;40457;-84
2021/03/02 09:01:38;;;;;;;12.23;10.43;;;29.40;14.70;;;;;;5002896;28;38228;-85
2021/03/02 09:04:08;;;;;;;10.93;9.93;;;29.40;14.50;;;;;;4998310;28;37838;-83
2021/03/02 09:06:36;;;;;;;11.17;9.93;;;29.60;14.30;;;;;;5014606;28;37641;-83
2021/03/02 09:09:08;;;;;;;15.37;10.00;;;29.80;14.30;;;;;;5017020;28;40101;-84
2021/03/02 09:11:36;;;;;;;12.80;10.90;;;30.30;13.90;;;;;;5016457;28;39315;-83
2021/03/02 09:14:05;;;;;;;13.57;10.20;;;30.00;14.00;;;;;;5000990;28;38279;-84
2021/03/02 09:16:35;;;;;;;11.33;10.23;;;30.10;13.80;;;;;;5019053;28;38191;-84
2021/03/02 09:19:24;;;;;;;11.73;10.07;;;30.00;13.70;;;;;;5012294;28;39730;-83
2021/03/02 09:22:02;;;;;;;13.27;9.77;;;30.30;13.80;;;;;;5008135;28;37958;-84
2021/03/02 09:24:31;;;;;;;11.60;10.20;;;30.60;13.40;;;;;;5022340;28;38225;-86
2021/03/02 09:27:00;;;;;;;12.73;10.77;;;31.20;13.10;;;;;;5018855;28;36754;-84
2021/03/02 09:29:29;;;;;;;11.83;10.63;;;31.40;13.00;;;;;;5019337;28;39854;-84
2021/03/02 09:31:58;;;;;;;13.00;11.13;;;31.10;12.70;;;;;;5021969;28;39246;-84
2021/03/02 09:34:37;;;;;;;11.30;10.23;;;31.20;12.90;;;;;;5004122;28;36974;-84
2021/03/02 09:37:06;;;;;;;11.23;10.03;;;31.70;12.60;;;;;;4991858;28;35969;-85
2021/03/02 09:39:34;;;;;;;11.80;10.63;;;31.90;12.60;;;;;;5014132;28;38939;-85
2021/03/02 09:42:13;;;;;;;16.97;11.03;;;31.60;12.80;;;;;;5027420;28;39156;-85
2021/03/02 09:44:44;;;;;;;13.53;11.30;;;31.50;12.70;;;;;;4997751;28;37644;-83
2021/03/02 09:47:16;;;;;;;11.63;10.07;;;31.80;12.60;;;;;;5012021;28;37502;-84
2021/03/02 09:49:55;;;;;;;12.50;10.60;;;32.10;12.20;;;;;;4993698;28;40582;-84
2021/03/02 09:52:34;;;;;;;11.90;10.70;;;32.50;12.20;;;;;;5018746;28;39862;-83
2021/03/02 09:55:29;;;;;;;15.77;10.27;;;32.60;12.00;;;;;;4994994;28;36798;-84
2021/03/02 09:58:07;;;;;;;12.37;11.13;;;32.50;11.80;;;;;;5009463;28;37383;-83
2021/03/02 10:00:40;;;;;;;13.33;10.80;;;32.00;12.10;;;;;;5008376;28;40326;-82
2021/03/02 10:03:12;;;;;;;13.47;10.70;;;32.00;12.10;;;;;;5017062;28;37506;-83
2021/03/02 10:05:43;;;;;;;11.23;10.03;;;32.40;12.20;;;;;;4997488;28;37530;-83
2021/03/02 10:08:24;;;;;;;12.73;11.40;;;32.50;11.90;;;;;;5017816;28;38386;-83
2021/03/02 10:10:54;;;;;;;12.27;10.97;;;32.60;11.70;;;;;;5002029;28;39447;-82
2021/03/02 10:13:25;;;;;;;11.60;10.30;;;32.10;12.00;;;;;;5024129;28;37651;-82
2021/03/02 10:16:18;;;;;;;16.10;10.70;;;31.90;12.00;;;;;;4996546;28;38034;-82
2021/03/02 10:18:50;;;;;;;20.50;10.77;;;32.00;12.00;;;;;;5025682;28;37159;-82
2021/03/02 10:21:19;;;;;;;16.90;12.13;;;32.00;11.90;;;;;;5007450;28;38864;-82
2021/03/02 10:23:48;;;;;;;16.00;10.77;;;31.80;12.00;;;;;;5014342;28;39747;-82
2021/03/02 10:26:22;;;;;;;12.70;10.87;;;31.40;12.20;;;;;;4995413;28;38493;-83
2021/03/02 10:28:49;;;;;;;12.23;10.43;;;30.90;12.40;;;;;;5006879;28;37410;-82
2021/03/02 10:31:17;;;;;;;22.47;11.27;;;30.70;12.70;;;;;;5001258;28;38446;-83
2021/03/02 10:33:45;;;;;;;10.67;9.73;;;30.60;12.60;;;;;;5008522;28;40465;-82
2021/03/02 10:36:26;;;;;;;12.13;9.07;;;30.90;12.60;;;;;;5019327;28;38620;-82
2021/03/02 10:38:56;;;;;;;12.53;9.07;;;30.80;13.00;;;;;;5011064;28;37512;-82
2021/03/02 10:41:25;;;;;;;11.57;9.57;;;30.80;12.50;;;;;;5015424;28;40655;-84
2021/03/02 10:43:56;;;;;;;11.30;10.17;;;30.70;12.50;;;;;;4999360;28;38806;-83
2021/03/02 10:46:27;;;;;;;11.83;10.63;;;30.10;12.20;;;;;;4985904;28;38375;-84
2021/03/02 10:48:54;;;;;;;11.07;9.97;;;29.40;12.70;;;;;;5018412;28;36048;-83
2021/03/02 10:51:23;;;;;;;12.93;9.63;;;29.10;13.10;;;;;;5009512;28;40526;-84
2021/03/02 10:53:50;;;;;;;14.10;10.40;;;28.90;13.50;;;;;;5004241;28;38798;-84
2021/03/02 10:56:18;;;;;;;12.30;10.20;;;28.90;13.20;;;;;;5009558;28;39858;-84
2021/03/02 10:58:46;;;;;;;13.47;9.47;;;28.80;13.30;;;;;;5014556;28;37688;-84
2021/03/02 11:01:13;;;;;;;14.07;9.97;;;28.50;13.20;;;;;;5013635;28;40019;-83
2021/03/02 11:03:42;;;;;;;11.73;10.43;;;28.40;13.60;;;;;;4997651;28;38310;-83
2021/03/02 11:06:10;;;;;;;12.20;10.90;;;27.70;13.70;;;;;;5014464;28;38649;-83
2021/03/02 11:08:39;;;;;;;64.10;13.40;;;26.70;14.60;;;;;;5017991;28;37627;-85
2021/03/02 11:11:08;;;;;;;13.43;9.87;;;26.00;15.00;;;;;;5008479;28;40809;-83
2021/03/02 11:13:40;;;;;;;15.10;9.87;;;25.10;15.50;;;;;;4995688;28;39081;-84
2021/03/02 11:16:07;;;;;;;12.50;10.30;;;24.00;16.30;;;;;;5009058;28;39195;-83
2021/03/02 11:18:35;;;;;;;20.70;10.83;;;23.40;16.90;;;;;;4992561;28;37004;-82
2021/03/02 11:21:02;;;;;;;13.60;10.43;;;22.90;17.30;;;;;;5009542;28;40311;-82
2021/03/02 11:23:31;;;;;;;13.73;9.70;;;22.00;17.80;;;;;;5011407;28;38874;-82
2021/03/02 11:25:59;;;;;;;13.20;9.77;;;21.30;18.90;;;;;;5009915;28;37243;-82
2021/03/02 11:28:27;;;;;;;12.90;9.43;;;20.70;19.40;;;;;;4981369;28;35552;-83
2021/03/02 11:30:54;;;;;;;13.80;10.00;;;20.40;19.40;;;;;;4993600;28;39536;-82
2021/03/02 11:33:21;;;;;;;13.50;9.17;;;20.10;19.40;;;;;;5004633;28;39043;-82
2021/03/02 11:35:48;;;;;;;11.43;9.20;;;19.60;19.20;;;;;;5008415;28;38230;-82
2021/03/02 11:38:15;;;;;;;9.90;8.00;;;19.40;19.90;;;;;;4984182;28;36443;-82
2021/03/02 11:40:44;;;;;;;14.40;10.20;;;19.00;19.70;;;;;;4995116;28;38331;-82
2021/03/02 11:43:12;;;;;;;14.67;9.20;;;18.60;20.40;;;;;;5012872;28;39428;-83
2021/03/02 11:45:41;;;;;;;12.30;9.67;;;18.00;21.00;;;;;;5004437;28;37475;-82
2021/03/02 11:48:10;;;;;;;11.00;8.80;;;17.70;21.70;;;;;;5010119;28;37251;-81
2021/03/02 11:50:37;;;;;;;11.23;8.43;;;17.30;22.20;;;;;;5002809;28;40461;-81
2021/03/02 11:53:09;;;;;;;23.43;9.90;;;17.10;22.40;;;;;;4996748;28;38815;-81
2021/03/02 11:55:36;;;;;;;13.67;7.60;;;17.00;22.80;;;;;;4985499;28;37597;-81
2021/03/02 11:58:06;;;;;;;11.90;8.30;;;16.70;22.60;;;;;;4988781;28;36005;-81
2021/03/02 12:00:34;;;;;;;19.47;8.80;;;16.60;22.70;;;;;;5004395;28;39450;-81
2021/03/02 12:03:01;;;;;;;14.50;8.97;;;16.50;23.40;;;;;;5008571;28;39672;-81
2021/03/02 12:05:31;;;;;;;14.40;8.30;;;16.30;23.80;;;;;;5012468;28;39394;-81
2021/03/02 12:07:58;;;;;;;13.73;8.43;;;16.30;23.70;;;;;;4989457;28;35710;-81
2021/03/02 12:10:25;;;;;;;11.67;7.73;;;16.20;23.40;;;;;;4994348;28;38300;-82
2021/03/02 12:12:52;;;;;;;11.77;8.33;;;16.00;23.80;;;;;;5008959;28;39011;-82
2021/03/02 12:15:19;;;;;;;14.00;8.20;;;15.80;23.40;;;;;;5008785;28;38256;-82
2021/03/02 12:17:47;;;;;;;12.23;8.63;;;15.70;23.60;;;;;;5008231;28;38051;-82
2021/03/02 12:20:14;;;;;;;17.03;8.47;;;15.60;23.90;;;;;;4991243;28;38292;-82
2021/03/02 12:22:41;;;;;;;11.63;8.00;;;15.60;23.90;;;;;;5016003;28;39241;-84
2021/03/02 12:25:10;;;;;;;12.13;7.70;;;15.60;23.90;;;;;;5007349;28;38511;-81
2021/03/02 12:27:37;;;;;;;14.10;8.17;;;15.60;23.50;;;;;;5012515;28;35995;-81
2021/03/02 12:30:06;;;;;;;13.27;7.10;;;15.60;23.40;;;;;;5003587;28;40011;-82
2021/03/02 12:32:35;;;;;;;9.00;6.80;;;15.60;23.60;;;;;;5004113;28;38935;-83
2021/03/02 12:35:04;;;;;;;11.57;7.20;;;15.50;23.90;;;;;;4999617;28;39406;-82
2021/03/02 12:37:31;;;;;;;12.13;8.03;;;15.50;23.50;;;;;;5011529;28;37336;-84
2021/03/02 12:39:59;;;;;;;10.70;7.13;;;15.50;23.40;;;;;;5017667;28;40064;-84
2021/03/02 12:42:26;;;;;;;10.63;6.93;;;15.50;22.20;;;;;;5025524;28;38877;-83
2021/03/02 12:44:53;;;;;;;8.77;6.73;;;15.40;22.00;;;;;;5006266;28;40252;-83
2021/03/02 12:47:20;;;;;;;12.37;7.23;;;15.50;22.10;;;;;;5024979;28;37720;-83
2021/03/02 12:49:47;;;;;;;13.70;6.83;;;15.50;22.40;;;;;;5019581;28;40167;-83
2021/03/02 12:52:17;;;;;;;13.17;6.70;;;15.50;22.00;;;;;;5009296;28;39326;-84